createdAt,value
2019-02-05T00:03:35.243Z,102100.02
2019-02-05T00:06:03.859Z,102099.05
2019-02-05T00:08:32.400Z,102102.45
2019-02-05T00:11:01.006Z,102099.81
2019-02-05T00:13:29.559Z,102095.52
2019-02-05T00:15:58.069Z,102093.73
2019-02-05T00:18:27.003Z,102096.36
2019-02-05T00:20:55.502Z,102092.05
2019-02-05T00:23:24.397Z,102086.73
2019-02-05T00:25:53.223Z,102089.36
2019-02-05T00:28:21.695Z,102082.58
2019-02-05T00:30:50.253Z,102093.94
2019-02-05T00:33:18.703Z,102091.59
2019-02-05T00:35:47.257Z,102090.13
2019-02-05T00:38:16.191Z,102089.87
2019-02-05T00:40:46.466Z,102093.78
2019-02-05T00:43:14.971Z,102088.61
2019-02-05T00:45:43.430Z,102086.86
2019-02-05T00:48:11.949Z,102085.80
2019-02-05T00:50:40.498Z,102086.73
2019-02-05T00:53:09.438Z,102096.41
2019-02-05T00:55:38.027Z,102084.71
2019-02-05T00:58:06.595Z,102082.14
2019-02-05T01:01:15.562Z,102076.27
2019-02-05T01:03:45.359Z,102075.80
2019-02-05T01:06:13.887Z,102073.74
2019-02-05T01:08:42.418Z,102071.19
2019-02-05T01:11:10.991Z,102065.23
2019-02-05T01:13:39.516Z,102056.74
2019-02-05T01:16:08.160Z,102052.88
2019-02-05T01:18:38.488Z,102047.88
2019-02-05T01:21:07.064Z,102042.84
2019-02-05T01:23:35.648Z,102044.14
2019-02-05T01:26:04.340Z,102048.55
2019-02-05T01:28:32.969Z,102045.46
2019-02-05T01:31:01.838Z,102048.48
2019-02-05T01:33:32.031Z,102046.46
2019-02-05T01:36:00.551Z,102037.05
2019-02-05T01:38:29.062Z,102031.91
2019-02-05T01:40:57.686Z,102032.61
2019-02-05T01:43:26.248Z,102024.81
2019-02-05T01:45:54.706Z,102029.87
2019-02-05T01:48:23.208Z,102024.88
2019-02-05T01:50:51.745Z,102024.96
2019-02-05T01:53:20.288Z,102018.78
2019-02-05T01:55:48.825Z,102020.69
2019-02-05T01:58:17.495Z,102016.63
2019-02-05T02:00:46.035Z,102012.22
2019-02-05T02:03:14.627Z,102013.22
2019-02-05T02:05:43.763Z,102005.77
2019-02-05T02:08:52.282Z,102008.83
2019-02-05T02:11:20.869Z,102002.34
2019-02-05T02:13:49.504Z,102001.55
2019-02-05T02:16:18.101Z,101992.90
2019-02-05T02:18:46.690Z,102003.14
2019-02-05T02:21:15.266Z,102000.39
2019-02-05T02:23:43.904Z,101998.08
2019-02-05T02:26:12.493Z,101991.85
2019-02-05T02:28:42.779Z,101999.47
2019-02-05T02:31:11.765Z,101997.35
2019-02-05T02:33:40.311Z,102003.61
2019-02-05T02:36:08.876Z,101998.12
2019-02-05T02:38:37.361Z,101994.29
2019-02-05T02:41:05.828Z,101994.41
2019-02-05T02:43:36.117Z,101990.78
2019-02-05T02:46:44.589Z,101995.49
2019-02-05T02:49:13.147Z,101993.25
2019-02-05T02:51:41.762Z,101996.96
2019-02-05T02:54:10.267Z,101995.91
2019-02-05T02:56:38.833Z,101993.21
2019-02-05T02:59:07.482Z,102002.98
2019-02-05T03:01:36.084Z,102004.69
2019-02-05T03:04:04.729Z,102015.73
2019-02-05T03:06:33.259Z,102023.77
2019-02-05T03:09:01.736Z,102014.34
2019-02-05T03:16:54.846Z,102008.21
2019-02-05T03:19:25.133Z,102002.10
2019-02-05T03:21:53.571Z,101999.02
2019-02-05T03:24:22.004Z,101990.09
2019-02-05T03:26:50.577Z,101992.56
2019-02-05T03:29:19.088Z,101991.02
2019-02-05T03:31:47.626Z,101993.49
2019-02-05T03:34:16.190Z,101991.33
2019-02-05T03:36:45.259Z,101992.76
2019-02-05T03:39:13.786Z,102001.06
2019-02-05T03:41:42.378Z,101993.38
2019-02-05T03:44:10.832Z,101990.16
2019-02-05T03:46:39.346Z,101992.52
2019-02-05T03:49:07.938Z,101993.53
2019-02-05T03:52:16.742Z,101988.73
2019-02-05T03:55:23.957Z,101992.41
2019-02-05T03:58:32.501Z,101987.38
2019-02-05T04:01:40.959Z,101980.34
2019-02-05T04:04:49.464Z,101987.84
2019-02-05T04:07:57.953Z,101986.99
2019-02-05T04:11:06.422Z,101990.74
2019-02-05T04:14:13.624Z,101997.66
2019-02-05T04:17:22.394Z,101990.94
2019-02-05T04:20:29.576Z,101995.23
2019-02-05T04:23:38.408Z,101982.28
2019-02-05T04:26:45.883Z,101983.82
2019-02-05T04:29:54.350Z,101981.96
2019-02-05T04:33:01.906Z,101980.68
2019-02-05T04:36:09.076Z,101972.59
2019-02-05T04:39:17.650Z,101963.75
2019-02-05T04:42:24.921Z,101964.06
2019-02-05T04:45:34.282Z,101971.61
2019-02-05T04:48:43.569Z,101980.39
2019-02-05T04:51:32.060Z,101976.84
2019-02-05T04:54:41.014Z,101976.30
2019-02-05T04:57:56.943Z,101964.08
2019-02-05T05:00:57.219Z,101969.72
2019-02-05T05:04:05.773Z,101976.33
2019-02-05T05:07:12.959Z,101969.34
2019-02-05T05:10:21.440Z,101975.17
2019-02-05T05:12:49.960Z,101966.20
2019-02-05T05:15:58.443Z,101963.73
2019-02-05T05:18:26.990Z,101967.72
2019-02-05T05:20:55.586Z,101966.41
2019-02-05T05:23:24.545Z,101970.34
2019-02-05T05:25:53.329Z,101957.67
2019-02-05T05:28:21.866Z,101958.44
2019-02-05T05:30:52.350Z,101955.66
2019-02-05T05:33:20.847Z,101950.59
2019-02-05T05:35:49.371Z,101948.86
2019-02-05T05:38:17.919Z,101948.82
2019-02-05T05:40:46.395Z,101946.19
2019-02-05T05:43:14.930Z,101943.56
2019-02-05T05:45:43.553Z,101936.37
2019-02-05T05:48:13.890Z,101944.52
2019-02-05T05:51:46.195Z,101949.23
2019-02-05T05:57:08.557Z,101957.81
2019-02-05T06:02:57.067Z,101963.30
2019-02-05T06:05:25.850Z,101961.64
2019-02-05T06:08:43.911Z,101968.91
2019-02-05T06:11:12.466Z,101965.70
2019-02-05T06:14:21.269Z,101963.64
2019-02-05T06:19:59.180Z,101968.44
2019-02-05T06:22:27.742Z,101964.49
2019-02-05T06:24:56.380Z,101968.63
2019-02-05T06:27:24.978Z,101968.91
2019-02-05T06:29:53.684Z,101971.61
2019-02-05T06:32:22.276Z,101967.67
2019-02-05T06:35:30.829Z,101968.98
2019-02-05T06:37:59.363Z,101972.77
2019-02-05T06:40:28.015Z,101969.39
2019-02-05T06:42:56.498Z,101969.59
2019-02-05T06:45:25.029Z,101982.27
2019-02-05T06:50:48.642Z,101980.10
2019-02-05T06:53:17.219Z,101981.61
2019-02-05T06:55:45.788Z,101982.84
2019-02-05T06:58:14.299Z,101984.05
2019-02-05T07:00:42.948Z,101990.62
2019-02-05T07:03:11.653Z,101984.31
2019-02-05T07:05:40.200Z,101987.80
2019-02-05T07:08:08.910Z,101991.73
2019-02-05T07:10:37.417Z,101999.08
2019-02-05T07:13:06.329Z,102000.97
2019-02-05T07:15:34.804Z,102006.92
2019-02-05T07:18:03.512Z,102017.25
2019-02-05T07:20:33.899Z,102020.89
2019-02-05T07:23:02.459Z,102033.33
2019-02-05T07:25:31.380Z,102031.73
2019-02-05T07:28:00.311Z,102028.18
2019-02-05T07:30:28.943Z,102031.30
2019-02-05T07:32:57.901Z,102028.37
2019-02-05T07:35:26.519Z,102027.55
2019-02-05T07:37:56.896Z,102032.45
2019-02-05T07:40:25.576Z,102034.31
2019-02-05T07:42:54.071Z,102034.89
2019-02-05T07:46:02.642Z,102038.29
2019-02-05T07:48:33.007Z,102037.36
2019-02-05T07:51:01.536Z,102040.20
2019-02-05T07:53:33.084Z,102041.52
2019-02-05T07:56:00.460Z,102035.98
2019-02-05T08:01:37.370Z,102033.47
2019-02-05T08:04:06.008Z,102039.59
2019-02-05T08:06:34.630Z,102039.68
2019-02-05T08:11:41.244Z,102040.00
2019-02-05T08:14:09.456Z,102044.58
2019-02-05T08:16:37.917Z,102043.02
2019-02-05T08:19:06.891Z,102046.11
2019-02-05T08:21:35.541Z,102052.41
2019-02-05T08:26:58.785Z,102041.98
2019-02-05T08:29:27.974Z,102049.33
2019-02-05T08:31:56.475Z,102053.84
2019-02-05T08:34:25.086Z,102048.23
2019-02-05T08:36:53.657Z,102048.58
2019-02-05T08:39:22.347Z,102057.06
2019-02-05T08:41:50.859Z,102053.67
2019-02-05T08:44:19.400Z,102051.98
2019-02-05T08:46:47.992Z,102055.39
2019-02-05T08:49:16.578Z,102056.63
2019-02-05T08:51:45.203Z,102057.56
2019-02-05T08:54:13.807Z,102062.53
2019-02-05T08:56:42.449Z,102061.50
2019-02-05T08:59:11.100Z,102063.86
2019-02-05T09:01:39.819Z,102061.53
2019-02-05T09:04:08.363Z,102058.81
2019-02-05T09:06:37.045Z,102077.16
2019-02-05T09:09:45.494Z,102069.73
2019-02-05T09:12:14.257Z,102065.78
2019-02-05T09:14:42.742Z,102071.99
2019-02-05T09:17:51.247Z,102075.65
2019-02-05T09:20:39.163Z,102080.27
2019-02-05T09:23:07.839Z,102071.52
2019-02-05T09:25:36.378Z,102078.28
2019-02-05T09:28:05.219Z,102080.07
2019-02-05T09:33:44.610Z,102081.59
2019-02-05T09:36:13.197Z,102088.18
2019-02-05T09:38:41.951Z,102090.26
2019-02-05T09:41:10.635Z,102082.14
2019-02-05T09:43:39.674Z,102090.14
2019-02-05T09:46:08.669Z,102078.48
2019-02-05T09:48:37.233Z,102087.23
2019-02-05T09:51:05.848Z,102096.55
2019-02-05T09:53:34.389Z,102101.36
2019-02-05T09:56:04.800Z,102095.91
2019-02-05T09:58:33.360Z,102093.15
2019-02-05T10:03:58.653Z,102109.91
2019-02-05T10:06:29.094Z,102112.45
2019-02-05T10:08:57.603Z,102112.07
2019-02-05T10:11:26.120Z,102121.67
2019-02-05T10:13:54.675Z,102122.61
2019-02-05T10:16:23.335Z,102129.41
2019-02-05T10:18:52.218Z,102115.85
2019-02-05T10:21:20.873Z,102109.09
2019-02-05T10:23:51.189Z,102110.75
2019-02-05T10:26:19.819Z,102105.39
2019-02-05T10:28:48.317Z,102111.51
2019-02-05T10:31:16.897Z,102105.50
2019-02-05T10:33:54.915Z,102105.28
2019-02-05T10:36:16.089Z,102108.02
2019-02-05T10:38:44.691Z,102108.30
2019-02-05T10:41:13.544Z,102109.45
2019-02-05T10:43:42.140Z,102109.80
2019-02-05T10:46:10.781Z,102109.92
2019-02-05T10:48:39.404Z,102109.80
2019-02-05T10:51:07.972Z,102109.62
2019-02-05T10:53:36.616Z,102104.35
2019-02-05T10:56:05.465Z,102103.33
2019-02-05T10:58:34.195Z,102110.18
2019-02-05T11:01:02.830Z,102110.02
2019-02-05T11:03:31.440Z,102106.61
2019-02-05T11:06:00.108Z,102105.11
2019-02-05T11:08:28.743Z,102108.58
2019-02-05T11:10:57.275Z,102103.31
2019-02-05T11:13:25.833Z,102101.50
2019-02-05T11:22:32.215Z,102095.64
2019-02-05T11:25:00.763Z,102102.45
2019-02-05T11:27:31.058Z,102094.14
2019-02-05T11:29:59.613Z,102093.83
2019-02-05T11:32:28.146Z,102099.09
2019-02-05T11:34:56.708Z,102098.05
2019-02-05T11:37:25.355Z,102095.89
2019-02-05T11:39:53.954Z,102101.36
2019-02-05T11:42:22.522Z,102107.67
2019-02-05T11:44:51.058Z,102100.31
2019-02-05T11:47:20.002Z,102110.11
2019-02-05T11:49:48.557Z,102104.47
2019-02-05T11:52:17.124Z,102102.19
2019-02-05T11:54:45.691Z,102110.57
2019-02-05T11:57:14.334Z,102099.30
2019-02-05T11:59:43.329Z,102103.92
2019-02-05T12:02:12.524Z,102105.71
2019-02-05T12:04:41.117Z,102108.13
2019-02-05T12:07:09.819Z,102105.97
2019-02-05T12:09:38.506Z,102104.74
2019-02-05T12:12:07.052Z,102110.40
2019-02-05T12:14:35.644Z,102102.13
2019-02-05T12:19:59.246Z,102097.98
2019-02-05T12:22:28.079Z,102100.22
2019-02-05T12:27:51.445Z,102097.58
2019-02-05T12:31:00.226Z,102092.48
2019-02-05T12:33:30.629Z,102097.92
2019-02-05T12:36:39.462Z,102102.48
2019-02-05T12:39:48.255Z,102101.31
2019-02-05T12:42:16.921Z,102108.67
2019-02-05T12:44:45.543Z,102106.19
2019-02-05T12:47:14.406Z,102095.47
2019-02-05T12:49:43.041Z,102099.02
2019-02-05T12:52:24.503Z,102092.89
2019-02-05T12:54:42.537Z,102097.32
2019-02-05T12:57:11.201Z,102089.55
2019-02-05T12:59:39.826Z,102098.04
2019-02-05T13:02:48.328Z,102095.77
2019-02-05T13:08:47.491Z,102101.05
2019-02-05T13:11:16.054Z,102101.44
2019-02-05T13:13:46.743Z,102099.64
2019-02-05T13:16:15.363Z,102098.56
2019-02-05T13:18:43.865Z,102099.98
2019-02-05T13:21:12.503Z,102095.49
2019-02-05T13:23:41.540Z,102103.70
2019-02-05T13:26:50.123Z,102107.28
2019-02-05T13:29:18.805Z,102101.91
2019-02-05T13:31:47.424Z,102103.32
2019-02-05T13:34:16.162Z,102112.09
2019-02-05T13:37:04.587Z,102108.85
2019-02-05T13:39:33.250Z,102110.17
2019-02-05T13:42:03.356Z,102118.59
2019-02-05T13:45:11.684Z,102114.17
2019-02-05T13:47:40.988Z,102111.09
2019-02-05T13:50:49.499Z,102115.20
2019-02-05T13:53:18.074Z,102119.64
2019-02-05T13:56:26.646Z,102118.00
2019-02-05T13:58:55.264Z,102122.91
2019-02-05T14:01:23.863Z,102118.98
2019-02-05T14:03:52.744Z,102125.48
2019-02-05T14:06:21.401Z,102123.31
2019-02-05T14:08:51.881Z,102130.20
2019-02-05T14:11:20.449Z,102125.67
2019-02-05T14:13:49.302Z,102125.36
2019-02-05T14:16:18.039Z,102128.41
2019-02-05T14:19:09.671Z,102133.69
2019-02-05T14:21:38.492Z,102134.34
2019-02-05T14:24:07.129Z,102129.06
2019-02-05T14:26:35.706Z,102134.45
2019-02-05T14:29:04.397Z,102129.16
2019-02-05T14:31:33.283Z,102133.38
2019-02-05T14:34:01.934Z,102132.11
2019-02-05T14:36:32.132Z,102143.62
2019-02-05T14:39:00.782Z,102142.42
2019-02-05T14:41:29.320Z,102143.05
2019-02-05T14:43:57.873Z,102145.31
2019-02-05T14:46:26.539Z,102151.92
2019-02-05T14:48:55.446Z,102150.45
2019-02-05T14:51:25.697Z,102155.73
2019-02-05T14:53:54.319Z,102151.92
2019-02-05T14:56:23.298Z,102156.20
2019-02-05T14:58:52.152Z,102156.11
2019-02-05T15:01:20.954Z,102156.48
2019-02-05T15:03:49.649Z,102160.38
2019-02-05T15:06:18.387Z,102162.73
2019-02-05T15:08:47.070Z,102161.04
2019-02-05T15:11:15.723Z,102166.95
2019-02-05T15:13:44.307Z,102168.59
2019-02-05T15:16:12.844Z,102163.68
2019-02-05T15:18:41.419Z,102168.59
2019-02-05T15:23:45.064Z,102177.08
2019-02-05T15:26:13.767Z,102168.20
2019-02-05T15:28:42.428Z,102168.61
2019-02-05T15:31:11.202Z,102168.42
2019-02-05T15:36:31.343Z,102163.87
2019-02-05T15:38:59.498Z,102176.07
2019-02-05T15:44:23.259Z,102172.17
2019-02-05T15:46:51.877Z,102180.91
2019-02-05T15:49:20.524Z,102171.60
2019-02-05T15:51:49.656Z,102177.38
2019-02-05T15:54:18.352Z,102173.83
2019-02-05T15:56:48.691Z,102172.98
2019-02-05T15:59:17.427Z,102170.88
2019-02-05T16:01:46.159Z,102174.45
2019-02-05T16:04:15.062Z,102168.27
2019-02-05T16:06:44.133Z,102176.27
2019-02-05T16:09:52.837Z,102177.31
2019-02-05T16:12:21.481Z,102177.95
2019-02-05T16:14:50.443Z,102183.52
2019-02-05T16:17:19.060Z,102183.32
2019-02-05T16:19:48.169Z,102180.42
2019-02-05T16:22:16.934Z,102188.06
2019-02-05T16:24:45.732Z,102192.70
2019-02-05T16:27:14.695Z,102189.59
2019-02-05T16:29:43.218Z,102190.92
2019-02-05T16:32:17.726Z,102194.21
2019-02-05T16:34:42.018Z,102188.63
2019-02-05T16:37:12.372Z,102186.55
2019-02-05T16:39:41.292Z,102199.47
2019-02-05T16:42:09.914Z,102198.46
2019-02-05T16:44:38.497Z,102201.83
2019-02-05T16:47:07.273Z,102199.00
2019-02-05T16:49:35.895Z,102200.16
2019-02-05T16:52:06.246Z,102201.71
2019-02-05T16:54:35.259Z,102205.04
2019-02-05T16:57:03.928Z,102203.97
2019-02-05T16:59:32.598Z,102204.82
2019-02-05T17:02:01.384Z,102201.36
2019-02-05T17:04:30.629Z,102208.89
2019-02-05T17:07:01.026Z,102207.86
2019-02-05T17:09:29.873Z,102208.80
2019-02-05T17:11:58.648Z,102213.36
2019-02-05T17:14:27.314Z,102210.88
2019-02-05T17:16:55.792Z,102219.66
2019-02-05T17:19:24.528Z,102222.74
2019-02-05T17:21:53.200Z,102219.98
2019-02-05T17:24:21.843Z,102223.09
2019-02-05T17:26:50.446Z,102226.12
2019-02-05T17:29:19.021Z,102229.51
2019-02-05T17:31:47.679Z,102227.94
2019-02-05T17:34:16.414Z,102229.16
2019-02-05T17:36:45.402Z,102231.61
2019-02-05T17:39:14.389Z,102220.50
2019-02-05T17:41:43.030Z,102217.95
2019-02-05T17:44:11.624Z,102216.73
2019-02-05T17:46:40.148Z,102222.77
2019-02-05T17:49:08.718Z,102217.66
2019-02-05T17:51:37.620Z,102226.65
2019-02-05T17:54:07.996Z,102222.22
2019-02-05T17:56:36.638Z,102226.18
2019-02-05T17:59:05.216Z,102225.59
2019-02-05T18:01:33.831Z,102223.23
2019-02-05T18:04:02.658Z,102228.61
2019-02-05T18:06:31.273Z,102235.31
2019-02-05T18:08:59.880Z,102241.06
2019-02-05T18:11:28.368Z,102237.66
2019-02-05T18:13:57.074Z,102241.06
2019-02-05T18:16:25.724Z,102237.94
2019-02-05T18:18:54.412Z,102234.28
2019-02-05T18:21:22.975Z,102241.82
2019-02-05T18:23:51.581Z,102236.36
2019-02-05T18:26:21.991Z,102233.03
2019-02-05T18:28:50.673Z,102233.52
2019-02-05T18:31:19.342Z,102237.10
2019-02-05T18:33:47.922Z,102237.86
2019-02-05T18:36:17.036Z,102237.69
2019-02-05T18:41:53.828Z,102234.17
2019-02-05T18:44:22.397Z,102230.30
2019-02-05T18:46:50.987Z,102234.48
2019-02-05T18:49:19.734Z,102231.62
2019-02-05T18:51:48.319Z,102230.61
2019-02-05T18:54:17.008Z,102238.33
2019-02-05T18:56:46.119Z,102240.88
2019-02-05T18:59:14.968Z,102239.48
2019-02-05T19:04:41.141Z,102236.92
2019-02-05T19:07:09.790Z,102239.94
2019-02-05T19:09:38.518Z,102242.58
2019-02-05T19:12:07.401Z,102251.91
2019-02-05T19:14:37.707Z,102245.04
2019-02-05T19:17:06.397Z,102247.09
2019-02-05T19:19:35.287Z,102239.38
2019-02-05T19:22:04.096Z,102235.20
2019-02-05T19:27:21.921Z,102239.16
2019-02-05T19:29:50.612Z,102237.13
2019-02-05T19:37:29.815Z,102251.36
2019-02-05T19:39:58.445Z,102251.44
2019-02-05T19:42:27.169Z,102249.73
2019-02-05T19:47:31.235Z,102254.17
2019-02-05T19:49:59.925Z,102248.25
2019-02-05T19:52:30.313Z,102249.83
2019-02-05T19:54:58.969Z,102248.89
2019-02-05T19:57:27.553Z,102256.90
2019-02-05T20:00:03.862Z,102250.89
2019-02-05T20:02:32.403Z,102257.19
2019-02-05T20:05:01.069Z,102248.41
2019-02-05T20:07:29.714Z,102253.90
2019-02-05T20:09:58.371Z,102250.32
2019-02-05T20:12:28.629Z,102251.64
2019-02-05T20:14:57.190Z,102253.14
2019-02-05T20:17:25.972Z,102258.04
2019-02-05T20:19:55.121Z,102258.04
2019-02-05T20:22:24.217Z,102257.86
2019-02-05T20:24:52.857Z,102256.43
2019-02-05T20:27:21.489Z,102255.40
2019-02-05T20:32:21.477Z,102258.04
2019-02-05T20:34:50.295Z,102260.52
2019-02-05T20:37:18.879Z,102257.95
2019-02-05T20:39:47.457Z,102261.23
2019-02-05T20:42:16.555Z,102260.50
2019-02-05T20:44:45.512Z,102257.86
2019-02-05T20:47:14.115Z,102263.98
2019-02-05T20:49:42.718Z,102265.20
2019-02-05T20:52:11.346Z,102263.50
2019-02-05T20:54:40.125Z,102264.18
2019-02-05T20:57:08.715Z,102267.67
2019-02-05T20:59:37.398Z,102266.05
2019-02-05T21:02:05.977Z,102268.98
2019-02-05T21:04:35.605Z,102270.30
2019-02-05T21:07:05.222Z,102278.78
2019-02-05T21:09:33.786Z,102277.93
2019-02-05T21:12:02.355Z,102282.00
2019-02-05T21:14:31.016Z,102282.73
2019-02-05T21:16:59.620Z,102284.98
2019-02-05T21:19:30.027Z,102281.04
2019-02-05T21:21:58.723Z,102280.01
2019-02-05T21:24:27.280Z,102280.56
2019-02-05T21:26:55.856Z,102281.03
2019-02-05T21:29:24.445Z,102289.80
2019-02-05T21:31:53.007Z,102286.61
2019-02-05T21:34:21.675Z,102295.77
2019-02-05T21:36:51.967Z,102296.52
2019-02-05T21:39:20.629Z,102296.61
2019-02-05T21:41:49.354Z,102299.13
2019-02-05T21:44:18.154Z,102298.87
2019-02-05T21:46:46.725Z,102293.39
2019-02-05T21:49:15.623Z,102299.72
2019-02-05T21:51:44.220Z,102298.02
2019-02-05T21:54:12.827Z,102299.72
2019-02-05T21:56:41.564Z,102301.98
2019-02-05T21:59:10.231Z,102302.91
2019-02-05T22:01:38.787Z,102308.20
2019-02-05T22:04:10.077Z,102301.98
2019-02-05T22:06:37.874Z,102299.25
2019-02-05T22:09:46.558Z,102309.90
2019-02-05T22:18:20.552Z,102308.75
2019-02-05T22:20:49.135Z,102308.57
2019-02-05T22:23:18.130Z,102299.33
2019-02-05T22:25:46.703Z,102307.16
2019-02-05T22:28:15.347Z,102307.16
2019-02-05T22:30:45.617Z,102306.31
2019-02-05T22:33:14.160Z,102307.42
2019-02-05T22:35:42.676Z,102307.81
2019-02-05T22:38:11.236Z,102302.44
2019-02-05T22:40:39.922Z,102300.48
2019-02-05T22:43:10.194Z,102296.69
2019-02-05T22:45:41.167Z,102300.48
2019-02-05T22:48:09.910Z,102297.00
2019-02-05T22:51:18.414Z,102296.14
2019-02-05T22:53:46.914Z,102300.45
2019-02-05T22:56:15.493Z,102302.73
2019-02-05T22:58:45.727Z,102304.70
2019-02-05T23:01:54.282Z,102296.98
2019-02-05T23:05:02.729Z,102298.48
2019-02-05T23:07:31.482Z,102290.10
2019-02-05T23:10:39.921Z,102293.59
2019-02-05T23:13:08.607Z,102294.06
2019-02-05T23:16:17.102Z,102296.14
2019-02-05T23:18:45.754Z,102305.00
2019-02-05T23:21:14.314Z,102301.21
2019-02-05T23:23:42.872Z,102305.55
2019-02-05T23:26:11.394Z,102300.83
2019-02-05T23:28:39.970Z,102302.91
2019-02-05T23:31:08.428Z,102302.16
2019-02-05T23:33:36.898Z,102299.89
2019-02-05T23:36:05.444Z,102299.16
2019-02-05T23:38:34.235Z,102299.80
2019-02-05T23:41:03.237Z,102305.64
2019-02-05T23:43:46.197Z,102302.27
2019-02-05T23:46:02.361Z,102307.25
2019-02-05T23:48:30.933Z,102310.45
2019-02-05T23:50:59.948Z,102311.39
2019-02-05T23:53:28.572Z,102314.41
2019-02-05T23:55:57.129Z,102311.68
2019-02-05T23:58:27.383Z,102314.41
